Elazig, Turkey
Current Conditions -  °F | °C
As of 9:50 PM on Saturday 25 Oct 2014 (Local Time) from LTCA Reporting Station
Clear Clear  
Wind Chill: 50°   Ceiling: Unl
Heat Index: 50°   Visibility: 6mi
Dew Point: 45°   Wind: 5mph
Humidity: 82%   Direction: 220°SW
Pressure: 30.06"   Gusts: NA
Location:  38.68°N, 39.23°E
Report Text: LTCA 251850Z 22004KT CAVOK 10/07 Q1018 NOSIG
Loading
Personal Weather Stations






























Interactive Weather Map
Tropical Storm Tracking
New forecast layout! Learn more

10-Day Weather Forecast

Advertisements
Track Severe Weather on mobile